sensor_id;sensor_type;location;lat;lon;timestamp;P1;durP1;ratioP1;P2;durP2;ratioP2
65393;SDS011;52002;49.760;6.512;2023-05-16T00:10:32;3.30;;;2.00;;
65393;SDS011;52002;49.760;6.512;2023-05-16T00:12:58;3.50;;;1.40;;
65393;SDS011;52002;49.760;6.512;2023-05-16T00:15:26;1.80;;;1.60;;
65393;SDS011;52002;49.760;6.512;2023-05-16T00:17:51;2.60;;;1.50;;
65393;SDS011;52002;49.760;6.512;2023-05-16T00:20:17;2.30;;;1.40;;
65393;SDS011;52002;49.760;6.512;2023-05-16T00:22:47;3.40;;;1.50;;
65393;SDS011;52002;49.760;6.512;2023-05-16T00:25:12;2.20;;;1.50;;
65393;SDS011;52002;49.760;6.512;2023-05-16T00:27:37;3.00;;;1.40;;
65393;SDS011;52002;49.760;6.512;2023-05-16T00:30:03;3.60;;;1.70;;
65393;SDS011;52002;49.760;6.512;2023-05-16T00:32:29;2.50;;;1.90;;
65393;SDS011;52002;49.760;6.512;2023-05-16T00:34:55;2.90;;;1.30;;
65393;SDS011;52002;49.760;6.512;2023-05-16T00:37:20;1.20;;;1.10;;
65393;SDS011;52002;49.760;6.512;2023-05-16T00:39:46;1.80;;;1.10;;
65393;SDS011;52002;49.760;6.512;2023-05-16T00:42:11;1.30;;;0.90;;
65393;SDS011;52002;49.760;6.512;2023-05-16T00:44:36;1.50;;;1.10;;
65393;SDS011;52002;49.760;6.512;2023-05-16T00:47:02;1.10;;;1.00;;
65393;SDS011;52002;49.760;6.512;2023-05-16T00:49:28;4.20;;;1.20;;
65393;SDS011;52002;49.760;6.512;2023-05-16T00:51:54;2.70;;;1.20;;
65393;SDS011;52002;49.760;6.512;2023-05-16T00:54:21;5.60;;;1.20;;
65393;SDS011;52002;49.760;6.512;2023-05-16T00:56:49;2.10;;;0.80;;
65393;SDS011;52002;49.760;6.512;2023-05-16T00:59:15;1.20;;;0.80;;
65393;SDS011;52002;49.760;6.512;2023-05-16T01:01:41;1.50;;;0.70;;
65393;SDS011;52002;49.760;6.512;2023-05-16T01:04:10;1.10;;;0.60;;
65393;SDS011;52002;49.760;6.512;2023-05-16T01:06:36;2.00;;;0.90;;
65393;SDS011;52002;49.760;6.512;2023-05-16T01:09:02;1.80;;;0.80;;
65393;SDS011;52002;49.760;6.512;2023-05-16T01:12:13;4.50;;;0.70;;
65393;SDS011;52002;49.760;6.512;2023-05-16T01:14:35;1.80;;;1.10;;
65393;SDS011;52002;49.760;6.512;2023-05-16T01:17:22;2.40;;;0.90;;
65393;SDS011;52002;49.760;6.512;2023-05-16T01:22:47;2.70;;;0.90;;
65393;SDS011;52002;49.760;6.512;2023-05-16T01:28:12;4.60;;;0.90;;
65393;SDS011;52002;49.760;6.512;2023-05-16T01:30:40;2.80;;;1.10;;
65393;SDS011;52002;49.760;6.512;2023-05-16T01:33:06;0.80;;;0.70;;
65393;SDS011;52002;49.760;6.512;2023-05-16T01:35:32;2.20;;;0.90;;
65393;SDS011;52002;49.760;6.512;2023-05-16T01:43:45;1.10;;;0.60;;
65393;SDS011;52002;49.760;6.512;2023-05-16T01:46:14;1.10;;;0.70;;
65393;SDS011;52002;49.760;6.512;2023-05-16T01:51:23;0.40;;;0.40;;
65393;SDS011;52002;49.760;6.512;2023-05-16T01:56:22;0.70;;;0.50;;
65393;SDS011;52002;49.760;6.512;2023-05-16T01:58:50;3.20;;;0.70;;
65393;SDS011;52002;49.760;6.512;2023-05-16T02:01:18;1.00;;;0.70;;
65393;SDS011;52002;49.760;6.512;2023-05-16T02:03:43;1.00;;;0.70;;
65393;SDS011;52002;49.760;6.512;2023-05-16T02:06:09;2.70;;;1.00;;
65393;SDS011;52002;49.760;6.512;2023-05-16T02:08:34;0.80;;;0.60;;
65393;SDS011;52002;49.760;6.512;2023-05-16T02:10:59;1.10;;;0.80;;
65393;SDS011;52002;49.760;6.512;2023-05-16T02:13:25;1.40;;;0.70;;
65393;SDS011;52002;49.760;6.512;2023-05-16T02:15:50;2.90;;;0.90;;
65393;SDS011;52002;49.760;6.512;2023-05-16T02:18:16;2.00;;;0.80;;
65393;SDS011;52002;49.760;6.512;2023-05-16T02:20:42;0.80;;;0.50;;
65393;SDS011;52002;49.760;6.512;2023-05-16T02:23:08;3.90;;;1.10;;
65393;SDS011;52002;49.760;6.512;2023-05-16T02:25:33;0.80;;;0.80;;
65393;SDS011;52002;49.760;6.512;2023-05-16T02:27:58;1.40;;;0.70;;
65393;SDS011;52002;49.760;6.512;2023-05-16T02:30:24;1.50;;;0.80;;
65393;SDS011;52002;49.760;6.512;2023-05-16T02:32:50;1.60;;;0.80;;
65393;SDS011;52002;49.760;6.512;2023-05-16T02:35:17;3.80;;;0.70;;
65393;SDS011;52002;49.760;6.512;2023-05-16T02:37:43;0.60;;;0.50;;
65393;SDS011;52002;49.760;6.512;2023-05-16T02:40:08;0.50;;;0.50;;
65393;SDS011;52002;49.760;6.512;2023-05-16T02:42:34;2.00;;;0.40;;
65393;SDS011;52002;49.760;6.512;2023-05-16T02:44:59;1.50;;;0.70;;
65393;SDS011;52002;49.760;6.512;2023-05-16T02:47:25;2.90;;;1.00;;
65393;SDS011;52002;49.760;6.512;2023-05-16T02:49:50;1.40;;;0.60;;
65393;SDS011;52002;49.760;6.512;2023-05-16T02:52:16;1.50;;;1.10;;
65393;SDS011;52002;49.760;6.512;2023-05-16T02:54:42;1.80;;;0.50;;
65393;SDS011;52002;49.760;6.512;2023-05-16T02:57:08;1.30;;;0.70;;
65393;SDS011;52002;49.760;6.512;2023-05-16T02:59:33;2.60;;;0.90;;
65393;SDS011;52002;49.760;6.512;2023-05-16T03:01:59;3.00;;;0.80;;
65393;SDS011;52002;49.760;6.512;2023-05-16T03:04:24;3.60;;;0.80;;
65393;SDS011;52002;49.760;6.512;2023-05-16T03:06:50;1.70;;;0.70;;
65393;SDS011;52002;49.760;6.512;2023-05-16T03:09:16;1.00;;;0.70;;
65393;SDS011;52002;49.760;6.512;2023-05-16T03:11:41;2.10;;;0.80;;
65393;SDS011;52002;49.760;6.512;2023-05-16T03:14:07;3.20;;;1.00;;
65393;SDS011;52002;49.760;6.512;2023-05-16T03:16:33;2.70;;;1.10;;
65393;SDS011;52002;49.760;6.512;2023-05-16T03:19:00;1.90;;;1.10;;
65393;SDS011;52002;49.760;6.512;2023-05-16T03:21:26;3.40;;;1.00;;
65393;SDS011;52002;49.760;6.512;2023-05-16T03:23:51;1.10;;;0.80;;
65393;SDS011;52002;49.760;6.512;2023-05-16T03:26:16;3.70;;;1.00;;
65393;SDS011;52002;49.760;6.512;2023-05-16T03:28:42;1.80;;;1.00;;
65393;SDS011;52002;49.760;6.512;2023-05-16T03:31:07;3.50;;;1.00;;
65393;SDS011;52002;49.760;6.512;2023-05-16T03:33:32;2.50;;;1.20;;
65393;SDS011;52002;49.760;6.512;2023-05-16T03:35:58;0.90;;;0.70;;
65393;SDS011;52002;49.760;6.512;2023-05-16T03:38:23;0.70;;;0.70;;
65393;SDS011;52002;49.760;6.512;2023-05-16T03:40:49;3.30;;;1.10;;
65393;SDS011;52002;49.760;6.512;2023-05-16T03:43:15;3.00;;;1.30;;
65393;SDS011;52002;49.760;6.512;2023-05-16T03:45:40;4.20;;;1.00;;
65393;SDS011;52002;49.760;6.512;2023-05-16T03:48:07;1.50;;;0.80;;
65393;SDS011;52002;49.760;6.512;2023-05-16T03:50:33;0.90;;;0.80;;
65393;SDS011;52002;49.760;6.512;2023-05-16T03:52:59;2.10;;;1.00;;
65393;SDS011;52002;49.760;6.512;2023-05-16T03:55:24;0.60;;;0.50;;
65393;SDS011;52002;49.760;6.512;2023-05-16T03:57:50;2.50;;;0.60;;
65393;SDS011;52002;49.760;6.512;2023-05-16T04:00:16;2.00;;;0.50;;
65393;SDS011;52002;49.760;6.512;2023-05-16T04:02:42;1.90;;;0.50;;
65393;SDS011;52002;49.760;6.512;2023-05-16T04:05:08;0.30;;;0.30;;
65393;SDS011;52002;49.760;6.512;2023-05-16T04:07:35;1.30;;;0.50;;
65393;SDS011;52002;49.760;6.512;2023-05-16T04:10:01;4.50;;;0.40;;
65393;SDS011;52002;49.760;6.512;2023-05-16T04:12:27;1.50;;;0.50;;
65393;SDS011;52002;49.760;6.512;2023-05-16T04:14:52;1.90;;;0.20;;
65393;SDS011;52002;49.760;6.512;2023-05-16T04:17:18;3.30;;;0.60;;
65393;SDS011;52002;49.760;6.512;2023-05-16T04:19:43;0.30;;;0.30;;
65393;SDS011;52002;49.760;6.512;2023-05-16T04:22:09;0.80;;;0.20;;
65393;SDS011;52002;49.760;6.512;2023-05-16T04:24:34;0.60;;;0.20;;
65393;SDS011;52002;49.760;6.512;2023-05-16T04:27:00;0.50;;;0.30;;
65393;SDS011;52002;49.760;6.512;2023-05-16T04:29:25;0.50;;;0.20;;
65393;SDS011;52002;49.760;6.512;2023-05-16T04:31:51;1.70;;;0.30;;
65393;SDS011;52002;49.760;6.512;2023-05-16T04:34:16;1.80;;;0.30;;
65393;SDS011;52002;49.760;6.512;2023-05-16T04:36:42;3.50;;;0.90;;
65393;SDS011;52002;49.760;6.512;2023-05-16T04:39:07;1.10;;;0.30;;
65393;SDS011;52002;49.760;6.512;2023-05-16T04:41:33;0.70;;;0.30;;
65393;SDS011;52002;49.760;6.512;2023-05-16T04:44:00;3.60;;;0.30;;
65393;SDS011;52002;49.760;6.512;2023-05-16T04:46:28;0.90;;;0.20;;
65393;SDS011;52002;49.760;6.512;2023-05-16T04:48:54;1.40;;;0.50;;
65393;SDS011;52002;49.760;6.512;2023-05-16T04:51:19;0.50;;;0.20;;
65393;SDS011;52002;49.760;6.512;2023-05-16T04:53:46;1.60;;;0.40;;
65393;SDS011;52002;49.760;6.512;2023-05-16T04:56:11;0.50;;;0.30;;
65393;SDS011;52002;49.760;6.512;2023-05-16T04:58:37;0.50;;;0.30;;
65393;SDS011;52002;49.760;6.512;2023-05-16T05:01:02;0.30;;;0.20;;
65393;SDS011;52002;49.760;6.512;2023-05-16T05:03:28;0.60;;;0.20;;
65393;SDS011;52002;49.760;6.512;2023-05-16T05:05:53;0.30;;;0.30;;
65393;SDS011;52002;49.760;6.512;2023-05-16T05:08:19;1.80;;;0.20;;
65393;SDS011;52002;49.760;6.512;2023-05-16T05:10:46;2.40;;;0.30;;
65393;SDS011;52002;49.760;6.512;2023-05-16T05:13:11;1.30;;;0.20;;
65393;SDS011;52002;49.760;6.512;2023-05-16T05:15:36;0.30;;;0.30;;
65393;SDS011;52002;49.760;6.512;2023-05-16T05:18:02;9.60;;;0.50;;
65393;SDS011;52002;49.760;6.512;2023-05-16T05:20:28;0.30;;;0.30;;
65393;SDS011;52002;49.760;6.512;2023-05-16T05:22:53;0.90;;;0.60;;
65393;SDS011;52002;49.760;6.512;2023-05-16T05:25:19;0.40;;;0.30;;
65393;SDS011;52002;49.760;6.512;2023-05-16T05:27:44;1.20;;;0.50;;
65393;SDS011;52002;49.760;6.512;2023-05-16T05:30:10;0.40;;;0.30;;
65393;SDS011;52002;49.760;6.512;2023-05-16T05:32:36;0.60;;;0.30;;
65393;SDS011;52002;49.760;6.512;2023-05-16T05:35:01;0.80;;;0.20;;
65393;SDS011;52002;49.760;6.512;2023-05-16T05:37:27;1.20;;;0.40;;
65393;SDS011;52002;49.760;6.512;2023-05-16T05:39:54;0.60;;;0.40;;
65393;SDS011;52002;49.760;6.512;2023-05-16T05:42:19;0.90;;;0.60;;
65393;SDS011;52002;49.760;6.512;2023-05-16T05:44:45;2.80;;;0.70;;
65393;SDS011;52002;49.760;6.512;2023-05-16T05:47:10;0.60;;;0.60;;
65393;SDS011;52002;49.760;6.512;2023-05-16T05:49:36;0.90;;;0.50;;
65393;SDS011;52002;49.760;6.512;2023-05-16T05:52:01;1.90;;;0.40;;
65393;SDS011;52002;49.760;6.512;2023-05-16T05:54:27;1.00;;;0.60;;
65393;SDS011;52002;49.760;6.512;2023-05-16T05:56:52;3.70;;;0.70;;
65393;SDS011;52002;49.760;6.512;2023-05-16T05:59:18;2.00;;;0.80;;
65393;SDS011;52002;49.760;6.512;2023-05-16T06:01:43;2.50;;;1.10;;
65393;SDS011;52002;49.760;6.512;2023-05-16T06:04:09;3.40;;;1.00;;
65393;SDS011;52002;49.760;6.512;2023-05-16T06:06:35;3.90;;;1.30;;
65393;SDS011;52002;49.760;6.512;2023-05-16T06:09:01;2.70;;;0.90;;
65393;SDS011;52002;49.760;6.512;2023-05-16T06:11:27;2.90;;;1.00;;
65393;SDS011;52002;49.760;6.512;2023-05-16T06:13:52;4.70;;;1.30;;
65393;SDS011;52002;49.760;6.512;2023-05-16T06:16:18;2.30;;;1.20;;
65393;SDS011;52002;49.760;6.512;2023-05-16T06:18:44;4.60;;;1.00;;
65393;SDS011;52002;49.760;6.512;2023-05-16T06:21:09;2.90;;;1.30;;
65393;SDS011;52002;49.760;6.512;2023-05-16T06:23:35;2.60;;;0.80;;
65393;SDS011;52002;49.760;6.512;2023-05-16T06:26:01;5.60;;;1.30;;
65393;SDS011;52002;49.760;6.512;2023-05-16T06:28:27;4.40;;;1.30;;
65393;SDS011;52002;49.760;6.512;2023-05-16T06:30:53;7.60;;;1.50;;
65393;SDS011;52002;49.760;6.512;2023-05-16T06:33:19;7.40;;;2.00;;
65393;SDS011;52002;49.760;6.512;2023-05-16T06:35:45;3.70;;;1.50;;
65393;SDS011;52002;49.760;6.512;2023-05-16T06:38:12;7.00;;;2.10;;
65393;SDS011;52002;49.760;6.512;2023-05-16T06:40:37;6.30;;;1.70;;
65393;SDS011;52002;49.760;6.512;2023-05-16T06:43:03;9.50;;;1.70;;
65393;SDS011;52002;49.760;6.512;2023-05-16T06:45:28;7.20;;;1.70;;
65393;SDS011;52002;49.760;6.512;2023-05-16T06:47:54;6.10;;;1.80;;
65393;SDS011;52002;49.760;6.512;2023-05-16T06:50:20;5.10;;;1.50;;
65393;SDS011;52002;49.760;6.512;2023-05-16T06:52:45;10.30;;;2.10;;
65393;SDS011;52002;49.760;6.512;2023-05-16T06:55:10;7.70;;;2.00;;
65393;SDS011;52002;49.760;6.512;2023-05-16T06:57:36;12.00;;;1.70;;
65393;SDS011;52002;49.760;6.512;2023-05-16T07:00:02;8.50;;;1.90;;
65393;SDS011;52002;49.760;6.512;2023-05-16T07:02:27;4.20;;;1.50;;
65393;SDS011;52002;49.760;6.512;2023-05-16T07:04:53;9.10;;;1.80;;
65393;SDS011;52002;49.760;6.512;2023-05-16T07:07:19;9.50;;;1.70;;
65393;SDS011;52002;49.760;6.512;2023-05-16T07:09:44;11.30;;;2.00;;
65393;SDS011;52002;49.760;6.512;2023-05-16T07:12:09;6.50;;;1.50;;
65393;SDS011;52002;49.760;6.512;2023-05-16T07:14:35;4.00;;;1.40;;
65393;SDS011;52002;49.760;6.512;2023-05-16T07:17:00;5.80;;;1.30;;
65393;SDS011;52002;49.760;6.512;2023-05-16T07:19:25;7.70;;;1.40;;
65393;SDS011;52002;49.760;6.512;2023-05-16T07:21:51;12.60;;;2.00;;
65393;SDS011;52002;49.760;6.512;2023-05-16T07:24:16;3.90;;;1.20;;
65393;SDS011;52002;49.760;6.512;2023-05-16T07:26:41;9.00;;;1.60;;
65393;SDS011;52002;49.760;6.512;2023-05-16T07:29:07;5.60;;;1.60;;
65393;SDS011;52002;49.760;6.512;2023-05-16T07:31:32;9.60;;;2.00;;
65393;SDS011;52002;49.760;6.512;2023-05-16T07:33:58;22.90;;;2.90;;
65393;SDS011;52002;49.760;6.512;2023-05-16T07:36:23;7.40;;;2.30;;
65393;SDS011;52002;49.760;6.512;2023-05-16T07:38:48;9.60;;;2.40;;
65393;SDS011;52002;49.760;6.512;2023-05-16T07:41:14;8.50;;;1.90;;
65393;SDS011;52002;49.760;6.512;2023-05-16T07:43:40;7.50;;;1.70;;
65393;SDS011;52002;49.760;6.512;2023-05-16T07:46:05;6.90;;;2.10;;
65393;SDS011;52002;49.760;6.512;2023-05-16T07:48:30;6.80;;;2.20;;
65393;SDS011;52002;49.760;6.512;2023-05-16T07:50:56;6.60;;;2.00;;
65393;SDS011;52002;49.760;6.512;2023-05-16T07:53:21;9.00;;;1.70;;
65393;SDS011;52002;49.760;6.512;2023-05-16T07:55:47;8.50;;;2.50;;
65393;SDS011;52002;49.760;6.512;2023-05-16T07:58:14;6.30;;;2.00;;
65393;SDS011;52002;49.760;6.512;2023-05-16T08:00:39;8.70;;;1.90;;
65393;SDS011;52002;49.760;6.512;2023-05-16T08:03:05;5.00;;;1.90;;
65393;SDS011;52002;49.760;6.512;2023-05-16T08:05:31;5.80;;;1.80;;
65393;SDS011;52002;49.760;6.512;2023-05-16T08:07:56;6.10;;;1.80;;
65393;SDS011;52002;49.760;6.512;2023-05-16T08:10:22;6.50;;;2.10;;
65393;SDS011;52002;49.760;6.512;2023-05-16T08:12:48;7.00;;;2.00;;
65393;SDS011;52002;49.760;6.512;2023-05-16T08:15:13;7.90;;;1.80;;
65393;SDS011;52002;49.760;6.512;2023-05-16T08:17:39;5.30;;;1.70;;
65393;SDS011;52002;49.760;6.512;2023-05-16T08:20:05;5.80;;;1.80;;
65393;SDS011;52002;49.760;6.512;2023-05-16T08:22:32;5.80;;;1.90;;
65393;SDS011;52002;49.760;6.512;2023-05-16T08:24:57;6.80;;;2.00;;
65393;SDS011;52002;49.760;6.512;2023-05-16T08:27:24;7.70;;;1.60;;
65393;SDS011;52002;49.760;6.512;2023-05-16T08:29:51;14.00;;;1.90;;
65393;SDS011;52002;49.760;6.512;2023-05-16T08:32:16;5.90;;;2.10;;
65393;SDS011;52002;49.760;6.512;2023-05-16T08:48:26;4.10;;;1.40;;
65393;SDS011;52002;49.760;6.512;2023-05-16T08:50:52;6.90;;;1.40;;
65393;SDS011;52002;49.760;6.512;2023-05-16T08:53:20;6.50;;;1.30;;
65393;SDS011;52002;49.760;6.512;2023-05-16T08:55:51;8.50;;;1.80;;
65393;SDS011;52002;49.760;6.512;2023-05-16T09:11:03;5.90;;;1.80;;
65393;SDS011;52002;49.760;6.512;2023-05-16T09:13:28;6.30;;;1.50;;
65393;SDS011;52002;49.760;6.512;2023-05-16T09:16:06;4.50;;;1.40;;
65393;SDS011;52002;49.760;6.512;2023-05-16T09:18:33;4.60;;;1.50;;
65393;SDS011;52002;49.760;6.512;2023-05-16T09:20:59;6.00;;;1.30;;
65393;SDS011;52002;49.760;6.512;2023-05-16T09:23:24;6.20;;;1.50;;
65393;SDS011;52002;49.760;6.512;2023-05-16T09:25:51;2.70;;;1.10;;
65393;SDS011;52002;49.760;6.512;2023-05-16T09:28:17;5.80;;;1.50;;
65393;SDS011;52002;49.760;6.512;2023-05-16T09:30:44;6.20;;;1.60;;
65393;SDS011;52002;49.760;6.512;2023-05-16T09:33:10;8.50;;;1.40;;
65393;SDS011;52002;49.760;6.512;2023-05-16T09:35:36;11.40;;;2.50;;
65393;SDS011;52002;49.760;6.512;2023-05-16T09:38:02;5.90;;;1.40;;
65393;SDS011;52002;49.760;6.512;2023-05-16T09:40:27;5.70;;;1.30;;
65393;SDS011;52002;49.760;6.512;2023-05-16T09:43:00;6.70;;;2.00;;
65393;SDS011;52002;49.760;6.512;2023-05-16T09:45:29;4.60;;;1.20;;
65393;SDS011;52002;49.760;6.512;2023-05-16T09:48:04;4.60;;;1.40;;
65393;SDS011;52002;49.760;6.512;2023-05-16T09:50:34;7.90;;;1.40;;
65393;SDS011;52002;49.760;6.512;2023-05-16T09:53:01;5.60;;;1.40;;
65393;SDS011;52002;49.760;6.512;2023-05-16T09:55:27;5.60;;;1.40;;
65393;SDS011;52002;49.760;6.512;2023-05-16T09:57:52;8.80;;;1.60;;
65393;SDS011;52002;49.760;6.512;2023-05-16T10:00:18;4.50;;;1.10;;
65393;SDS011;52002;49.760;6.512;2023-05-16T10:02:43;4.10;;;1.20;;
65393;SDS011;52002;49.760;6.512;2023-05-16T10:05:10;8.00;;;1.40;;
65393;SDS011;52002;49.760;6.512;2023-05-16T10:07:35;6.80;;;1.50;;
65393;SDS011;52002;49.760;6.512;2023-05-16T10:10:07;3.80;;;1.10;;
65393;SDS011;52002;49.760;6.512;2023-05-16T10:12:33;7.50;;;1.50;;
65393;SDS011;52002;49.760;6.512;2023-05-16T10:15:02;8.00;;;1.20;;
65393;SDS011;52002;49.760;6.512;2023-05-16T10:17:30;6.00;;;1.20;;
65393;SDS011;52002;49.760;6.512;2023-05-16T10:20:03;8.70;;;1.30;;
65393;SDS011;52002;49.760;6.512;2023-05-16T10:22:32;6.00;;;1.10;;
65393;SDS011;52002;49.760;6.512;2023-05-16T10:25:03;4.00;;;1.40;;
65393;SDS011;52002;49.760;6.512;2023-05-16T10:27:34;5.10;;;1.20;;
65393;SDS011;52002;49.760;6.512;2023-05-16T10:30:00;6.10;;;1.60;;
65393;SDS011;52002;49.760;6.512;2023-05-16T10:32:26;7.10;;;1.30;;
65393;SDS011;52002;49.760;6.512;2023-05-16T10:34:52;5.30;;;1.30;;
65393;SDS011;52002;49.760;6.512;2023-05-16T10:37:20;6.60;;;1.60;;
65393;SDS011;52002;49.760;6.512;2023-05-16T10:39:46;5.80;;;1.30;;
65393;SDS011;52002;49.760;6.512;2023-05-16T10:42:12;7.70;;;1.30;;
65393;SDS011;52002;49.760;6.512;2023-05-16T10:44:42;7.90;;;1.30;;
65393;SDS011;52002;49.760;6.512;2023-05-16T10:47:07;6.60;;;1.40;;
65393;SDS011;52002;49.760;6.512;2023-05-16T10:49:33;4.80;;;1.30;;
65393;SDS011;52002;49.760;6.512;2023-05-16T10:52:08;7.20;;;1.30;;
65393;SDS011;52002;49.760;6.512;2023-05-16T10:57:08;4.50;;;1.40;;
65393;SDS011;52002;49.760;6.512;2023-05-16T10:59:39;5.60;;;0.90;;
65393;SDS011;52002;49.760;6.512;2023-05-16T11:04:51;5.00;;;1.00;;
65393;SDS011;52002;49.760;6.512;2023-05-16T11:07:18;6.30;;;1.20;;
65393;SDS011;52002;49.760;6.512;2023-05-16T11:09:52;4.50;;;1.10;;
65393;SDS011;52002;49.760;6.512;2023-05-16T11:12:41;4.90;;;1.20;;
65393;SDS011;52002;49.760;6.512;2023-05-16T11:15:16;11.50;;;1.50;;
65393;SDS011;52002;49.760;6.512;2023-05-16T11:17:42;8.70;;;1.40;;
65393;SDS011;52002;49.760;6.512;2023-05-16T11:20:07;7.70;;;1.20;;
65393;SDS011;52002;49.760;6.512;2023-05-16T11:22:49;6.30;;;1.00;;
65393;SDS011;52002;49.760;6.512;2023-05-16T11:25:15;3.70;;;1.10;;
65393;SDS011;52002;49.760;6.512;2023-05-16T11:27:45;10.70;;;1.80;;
65393;SDS011;52002;49.760;6.512;2023-05-16T11:30:12;9.20;;;1.70;;
65393;SDS011;52002;49.760;6.512;2023-05-16T11:32:43;9.30;;;1.50;;
65393;SDS011;52002;49.760;6.512;2023-05-16T11:35:10;4.50;;;1.00;;
65393;SDS011;52002;49.760;6.512;2023-05-16T11:37:38;4.10;;;1.70;;
65393;SDS011;52002;49.760;6.512;2023-05-16T11:40:04;6.30;;;1.00;;
65393;SDS011;52002;49.760;6.512;2023-05-16T11:42:39;6.90;;;1.30;;
65393;SDS011;52002;49.760;6.512;2023-05-16T11:45:10;9.50;;;1.20;;
65393;SDS011;52002;49.760;6.512;2023-05-16T11:47:39;8.90;;;1.30;;
65393;SDS011;52002;49.760;6.512;2023-05-16T11:50:09;6.40;;;1.40;;
65393;SDS011;52002;49.760;6.512;2023-05-16T11:52:37;5.20;;;1.00;;
65393;SDS011;52002;49.760;6.512;2023-05-16T11:55:06;8.60;;;1.20;;
65393;SDS011;52002;49.760;6.512;2023-05-16T11:57:34;5.20;;;1.10;;
65393;SDS011;52002;49.760;6.512;2023-05-16T12:00:19;6.30;;;1.10;;
65393;SDS011;52002;49.760;6.512;2023-05-16T12:02:47;8.30;;;1.40;;
65393;SDS011;52002;49.760;6.512;2023-05-16T12:05:14;5.10;;;0.90;;
65393;SDS011;52002;49.760;6.512;2023-05-16T12:07:43;4.10;;;0.90;;
65393;SDS011;52002;49.760;6.512;2023-05-16T12:10:10;6.60;;;0.90;;
65393;SDS011;52002;49.760;6.512;2023-05-16T12:12:39;6.40;;;1.40;;
65393;SDS011;52002;49.760;6.512;2023-05-16T12:15:06;5.80;;;1.40;;
65393;SDS011;52002;49.760;6.512;2023-05-16T12:17:33;4.00;;;1.00;;
65393;SDS011;52002;49.760;6.512;2023-05-16T12:19:59;4.50;;;1.20;;
65393;SDS011;52002;49.760;6.512;2023-05-16T12:22:26;8.70;;;1.10;;
65393;SDS011;52002;49.760;6.512;2023-05-16T12:24:51;5.70;;;1.20;;
65393;SDS011;52002;49.760;6.512;2023-05-16T12:27:23;7.00;;;1.40;;
65393;SDS011;52002;49.760;6.512;2023-05-16T12:29:50;4.30;;;1.00;;
65393;SDS011;52002;49.760;6.512;2023-05-16T12:32:19;3.90;;;1.00;;
65393;SDS011;52002;49.760;6.512;2023-05-16T12:34:48;5.00;;;1.60;;
65393;SDS011;52002;49.760;6.512;2023-05-16T12:37:16;10.40;;;1.60;;
65393;SDS011;52002;49.760;6.512;2023-05-16T12:39:41;8.40;;;1.10;;
65393;SDS011;52002;49.760;6.512;2023-05-16T12:42:07;4.80;;;1.10;;
65393;SDS011;52002;49.760;6.512;2023-05-16T12:44:33;2.30;;;0.80;;
65393;SDS011;52002;49.760;6.512;2023-05-16T12:47:00;5.30;;;1.20;;
65393;SDS011;52002;49.760;6.512;2023-05-16T12:49:26;4.00;;;1.00;;
65393;SDS011;52002;49.760;6.512;2023-05-16T12:51:52;4.80;;;1.30;;
65393;SDS011;52002;49.760;6.512;2023-05-16T12:54:20;4.70;;;1.30;;
65393;SDS011;52002;49.760;6.512;2023-05-16T12:56:49;3.60;;;0.90;;
65393;SDS011;52002;49.760;6.512;2023-05-16T12:59:15;5.60;;;1.00;;
65393;SDS011;52002;49.760;6.512;2023-05-16T13:01:40;7.50;;;1.50;;
65393;SDS011;52002;49.760;6.512;2023-05-16T13:04:06;5.60;;;1.20;;
65393;SDS011;52002;49.760;6.512;2023-05-16T13:06:32;5.50;;;1.10;;
65393;SDS011;52002;49.760;6.512;2023-05-16T13:08:58;4.10;;;1.20;;
65393;SDS011;52002;49.760;6.512;2023-05-16T13:11:24;4.50;;;1.10;;
65393;SDS011;52002;49.760;6.512;2023-05-16T13:13:50;5.90;;;1.20;;
65393;SDS011;52002;49.760;6.512;2023-05-16T13:16:16;9.00;;;1.00;;
65393;SDS011;52002;49.760;6.512;2023-05-16T13:18:42;4.70;;;0.90;;
65393;SDS011;52002;49.760;6.512;2023-05-16T13:21:07;7.40;;;1.40;;
65393;SDS011;52002;49.760;6.512;2023-05-16T13:23:33;5.00;;;1.20;;
65393;SDS011;52002;49.760;6.512;2023-05-16T13:25:58;3.30;;;1.00;;
65393;SDS011;52002;49.760;6.512;2023-05-16T13:28:24;5.70;;;1.40;;
65393;SDS011;52002;49.760;6.512;2023-05-16T13:30:49;4.50;;;1.00;;
65393;SDS011;52002;49.760;6.512;2023-05-16T13:33:15;8.80;;;1.50;;
65393;SDS011;52002;49.760;6.512;2023-05-16T13:35:42;2.50;;;1.00;;
65393;SDS011;52002;49.760;6.512;2023-05-16T13:38:08;6.80;;;1.10;;
65393;SDS011;52002;49.760;6.512;2023-05-16T13:40:33;4.70;;;1.00;;
65393;SDS011;52002;49.760;6.512;2023-05-16T13:43:00;4.90;;;1.00;;
65393;SDS011;52002;49.760;6.512;2023-05-16T13:45:25;7.30;;;1.10;;
65393;SDS011;52002;49.760;6.512;2023-05-16T13:47:51;7.70;;;1.00;;
65393;SDS011;52002;49.760;6.512;2023-05-16T13:50:17;4.10;;;1.20;;
65393;SDS011;52002;49.760;6.512;2023-05-16T13:52:42;8.70;;;1.80;;
65393;SDS011;52002;49.760;6.512;2023-05-16T13:55:08;6.40;;;1.30;;
65393;SDS011;52002;49.760;6.512;2023-05-16T13:57:34;4.90;;;1.30;;
65393;SDS011;52002;49.760;6.512;2023-05-16T14:00:01;5.30;;;1.50;;
65393;SDS011;52002;49.760;6.512;2023-05-16T14:02:30;7.20;;;1.40;;
65393;SDS011;52002;49.760;6.512;2023-05-16T14:04:55;8.80;;;1.60;;
65393;SDS011;52002;49.760;6.512;2023-05-16T14:07:21;4.30;;;1.10;;
65393;SDS011;52002;49.760;6.512;2023-05-16T14:09:46;5.00;;;1.30;;
65393;SDS011;52002;49.760;6.512;2023-05-16T14:12:11;3.40;;;1.10;;
65393;SDS011;52002;49.760;6.512;2023-05-16T14:14:37;6.30;;;1.20;;
65393;SDS011;52002;49.760;6.512;2023-05-16T14:17:02;4.80;;;1.30;;
65393;SDS011;52002;49.760;6.512;2023-05-16T14:19:28;7.30;;;1.20;;
65393;SDS011;52002;49.760;6.512;2023-05-16T14:21:54;6.90;;;1.50;;
65393;SDS011;52002;49.760;6.512;2023-05-16T14:24:20;3.90;;;1.10;;
65393;SDS011;52002;49.760;6.512;2023-05-16T14:26:45;4.80;;;1.40;;
65393;SDS011;52002;49.760;6.512;2023-05-16T14:29:10;4.80;;;1.20;;
65393;SDS011;52002;49.760;6.512;2023-05-16T14:31:37;3.70;;;1.00;;
65393;SDS011;52002;49.760;6.512;2023-05-16T14:34:02;5.90;;;1.10;;
65393;SDS011;52002;49.760;6.512;2023-05-16T14:36:28;4.50;;;0.90;;
65393;SDS011;52002;49.760;6.512;2023-05-16T14:38:53;7.00;;;1.00;;
65393;SDS011;52002;49.760;6.512;2023-05-16T14:41:19;3.60;;;1.00;;
65393;SDS011;52002;49.760;6.512;2023-05-16T14:43:45;5.80;;;1.20;;
65393;SDS011;52002;49.760;6.512;2023-05-16T14:46:10;4.30;;;1.20;;
65393;SDS011;52002;49.760;6.512;2023-05-16T14:48:36;4.30;;;1.00;;
65393;SDS011;52002;49.760;6.512;2023-05-16T14:51:02;6.90;;;1.10;;
65393;SDS011;52002;49.760;6.512;2023-05-16T14:53:28;4.30;;;1.30;;
65393;SDS011;52002;49.760;6.512;2023-05-16T14:55:54;3.70;;;0.90;;
65393;SDS011;52002;49.760;6.512;2023-05-16T14:58:19;4.20;;;1.10;;
65393;SDS011;52002;49.760;6.512;2023-05-16T15:00:45;4.60;;;1.20;;
65393;SDS011;52002;49.760;6.512;2023-05-16T15:03:10;2.90;;;0.80;;
65393;SDS011;52002;49.760;6.512;2023-05-16T15:05:36;6.00;;;1.00;;
65393;SDS011;52002;49.760;6.512;2023-05-16T15:08:01;2.30;;;0.80;;
65393;SDS011;52002;49.760;6.512;2023-05-16T15:10:27;4.00;;;1.00;;
65393;SDS011;52002;49.760;6.512;2023-05-16T15:12:52;3.30;;;1.00;;
65393;SDS011;52002;49.760;6.512;2023-05-16T15:15:17;4.30;;;0.90;;
65393;SDS011;52002;49.760;6.512;2023-05-16T15:17:43;4.80;;;1.20;;
65393;SDS011;52002;49.760;6.512;2023-05-16T15:20:09;4.90;;;1.10;;
65393;SDS011;52002;49.760;6.512;2023-05-16T15:22:36;14.30;;;6.60;;
65393;SDS011;52002;49.760;6.512;2023-05-16T15:25:03;6.10;;;1.90;;
65393;SDS011;52002;49.760;6.512;2023-05-16T15:27:30;3.90;;;1.00;;
65393;SDS011;52002;49.760;6.512;2023-05-16T15:29:56;4.60;;;1.20;;
65393;SDS011;52002;49.760;6.512;2023-05-16T15:32:21;5.20;;;1.00;;
65393;SDS011;52002;49.760;6.512;2023-05-16T15:34:47;5.30;;;0.90;;
65393;SDS011;52002;49.760;6.512;2023-05-16T15:37:13;2.50;;;0.90;;
65393;SDS011;52002;49.760;6.512;2023-05-16T15:39:39;3.80;;;0.90;;
65393;SDS011;52002;49.760;6.512;2023-05-16T15:42:04;3.90;;;0.90;;